Time;durP1;ratioP1;P1;durP2;ratioP2;P2;SDS_P1;SDS_P2;PMS_P1;PMS_P2;Temp;Humidity;BMP_temperature;BMP_pressure;BME280_temperature;BME280_humidity;BME280_pressure;Samples;Min_cycle;Max_cycle;Signal;HPM_P1;HPM_P2
2022/07/25 00:02:16;;;;;;;;;;;21.10;99.90;;;;;;5136048;27;20352;-70
2022/07/25 00:04:41;;;;;;;;;;;21.10;99.90;;;;;;5135680;27;19923;-69
2022/07/25 00:07:07;;;;;;;;;;;21.10;99.90;;;;;;5135852;27;19974;-70
2022/07/25 00:09:33;;;;;;;;;;;21.10;99.90;;;;;;5117845;27;19924;-69
2022/07/25 00:11:58;;;;;;;;;;;21.00;99.90;;;;;;5135704;27;20014;-70
2022/07/25 00:14:24;;;;;;;;;;;21.00;99.90;;;;;;5117584;27;19996;-69
2022/07/25 00:16:50;;;;;;;;;;;21.00;99.90;;;;;;5135576;27;19930;-70
2022/07/25 00:19:16;;;;;;;;;;;20.70;99.90;;;;;;5135432;27;20396;-70
2022/07/25 00:21:41;;;;;;;;;;;21.00;99.90;;;;;;5135698;27;19927;-70
2022/07/25 00:24:07;;;;;;;;;;;20.40;99.90;;;;;;5117296;28;19931;-69
2022/07/25 00:26:33;;;;;;;;;;;20.90;99.90;;;;;;5135273;27;19931;-72
2022/07/25 00:29:00;;;;;;;;;;;20.90;99.90;;;;;;5135395;27;19923;-71
2022/07/25 00:31:25;;;;;;;;;;;20.90;99.90;;;;;;5135187;27;20305;-69
2022/07/25 00:33:51;;;;;;;;;;;20.90;99.90;;;;;;5151611;27;19923;-71
2022/07/25 00:36:16;;;;;;;;;;;20.90;99.90;;;;;;5135112;27;19924;-69
2022/07/25 00:38:42;;;;;;;;;;;20.80;99.90;;;;;;5135428;27;20019;-71
2022/07/25 00:41:07;;;;;;;;;;;20.80;99.90;;;;;;5135223;27;19923;-69
2022/07/25 00:43:33;;;;;;;;;;;20.80;99.90;;;;;;5117206;27;20271;-70
2022/07/25 00:45:59;;;;;;;;;;;20.80;99.90;;;;;;5134753;27;19946;-70
2022/07/25 00:48:25;;;;;;;;;;;20.30;99.90;;;;;;5134999;27;19993;-70
2022/07/25 00:50:50;;;;;;;;;;;20.70;99.90;;;;;;5134893;27;19927;-69
2022/07/25 00:53:16;;;;;;;;;;;20.80;99.90;;;;;;5116841;27;20278;-70
2022/07/25 00:55:42;;;;;;;;;;;20.70;99.90;;;;;;5135069;27;19930;-70
2022/07/25 00:58:08;;;;;;;;;;;20.70;99.90;;;;;;5134998;27;19923;-69
2022/07/25 01:00:33;;;;;;;;;;;20.70;99.90;;;;;;5151246;27;20366;-71
2022/07/25 01:02:59;;;;;;;;;;;20.70;99.90;;;;;;5116599;28;19946;-70
2022/07/25 01:05:25;;;;;;;;;;;20.70;99.90;;;;;;5134634;27;19983;-71
2022/07/25 01:07:50;;;;;;;;;;;20.60;99.90;;;;;;5134892;27;19946;-70
2022/07/25 01:10:16;;;;;;;;;;;20.70;99.90;;;;;;5134832;27;19924;-71
2022/07/25 01:12:49;;;;;;;;;;;20.60;99.90;;;;;;5116793;28;19923;-70
2022/07/25 01:15:19;;;;;;;;;;;20.60;99.90;;;;;;5134751;27;19931;-70
2022/07/25 01:17:45;;;;;;;;;;;20.60;99.90;;;;;;5134626;27;19933;-70
2022/07/25 01:20:18;;;;;;;;;;;20.60;99.90;;;;;;5116540;28;19923;-70
2022/07/25 01:22:44;;;;;;;;;;;20.60;99.90;;;;;;5116448;28;19923;-69
2022/07/25 01:25:10;;;;;;;;;;;20.60;99.90;;;;;;5134385;28;20084;-71
2022/07/25 01:27:35;;;;;;;;;;;20.60;99.90;;;;;;5134541;28;19982;-71
2022/07/25 01:30:01;;;;;;;;;;;20.50;99.90;;;;;;5134552;28;19923;-71
2022/07/25 01:32:27;;;;;;;;;;;20.50;99.90;;;;;;5134841;28;19923;-69
2022/07/25 01:34:52;;;;;;;;;;;20.50;99.90;;;;;;5134362;28;20404;-69
2022/07/25 01:37:18;;;;;;;;;;;20.50;99.90;;;;;;5134572;28;19923;-71
2022/07/25 01:39:43;;;;;;;;;;;20.50;99.90;;;;;;5134583;28;19924;-70
2022/07/25 01:42:09;;;;;;;;;;;20.50;99.90;;;;;;5116519;28;20382;-71
2022/07/25 01:44:34;;;;;;;;;;;20.40;99.90;;;;;;5134512;28;19950;-70
2022/07/25 01:47:00;;;;;;;;;;;20.30;99.90;;;;;;5134352;28;19924;-70
2022/07/25 01:49:25;;;;;;;;;;;20.40;99.90;;;;;;5115953;28;19930;-70
2022/07/25 01:51:51;;;;;;;;;;;20.40;99.90;;;;;;5134275;28;20016;-71
2022/07/25 01:54:17;;;;;;;;;;;20.40;99.90;;;;;;5134491;28;20297;-70
2022/07/25 01:56:43;;;;;;;;;;;20.30;99.90;;;;;;5134400;28;19969;-70
2022/07/25 01:59:09;;;;;;;;;;;20.30;99.90;;;;;;5136590;27;19923;-70
2022/07/25 02:01:35;;;;;;;;;;;20.30;99.90;;;;;;5154645;27;19934;-71
2022/07/25 02:04:00;;;;;;;;;;;20.30;99.90;;;;;;5138197;27;19931;-70
2022/07/25 02:06:26;;;;;;;;;;;20.30;99.90;;;;;;5137947;27;19927;-69
2022/07/25 02:08:51;;;;;;;;;;;20.30;99.90;;;;;;5138285;27;19924;-70
2022/07/25 02:11:17;;;;;;;;;;;20.30;99.90;;;;;;5138626;27;20025;-70
2022/07/25 02:13:43;;;;;;;;;;;20.30;99.90;;;;;;5138052;27;20366;-70
2022/07/25 02:16:09;;;;;;;;;;;20.30;99.90;;;;;;5138100;27;20266;-69
2022/07/25 02:18:34;;;;;;;;;;;20.20;99.90;;;;;;5138046;27;20018;-70
2022/07/25 02:21:00;;;;;;;;;;;20.20;99.90;;;;;;5137881;27;19946;-70
2022/07/25 02:23:25;;;;;;;;;;;20.20;99.90;;;;;;5138009;27;20278;-69
2022/07/25 02:25:51;;;;;;;;;;;20.20;99.90;;;;;;5119422;27;19936;-71
2022/07/25 02:28:17;;;;;;;;;;;20.20;99.90;;;;;;5137685;27;19967;-70
2022/07/25 02:30:42;;;;;;;;;;;20.20;99.90;;;;;;5137769;27;19931;-70
2022/07/25 02:33:08;;;;;;;;;;;20.20;99.90;;;;;;5137699;27;19923;-69
2022/07/25 02:35:33;;;;;;;;;;;20.20;99.90;;;;;;5153913;27;19923;-71
2022/07/25 02:37:59;;;;;;;;;;;20.20;99.90;;;;;;5118962;27;19927;-71
2022/07/25 02:40:25;;;;;;;;;;;20.20;99.90;;;;;;5137613;27;19981;-70
2022/07/25 02:42:50;;;;;;;;;;;20.10;99.90;;;;;;5137703;27;19923;-70
2022/07/25 02:45:16;;;;;;;;;;;20.20;99.90;;;;;;5119357;27;19923;-70
2022/07/25 02:47:42;;;;;;;;;;;20.20;99.90;;;;;;5137456;27;19971;-71
2022/07/25 02:50:08;;;;;;;;;;;20.20;99.90;;;;;;5137296;27;19988;-69
2022/07/25 02:52:33;;;;;;;;;;;20.10;99.90;;;;;;5137178;27;19924;-71
2022/07/25 02:54:59;;;;;;;;;;;20.10;99.90;;;;;;5137359;27;19924;-70
2022/07/25 02:57:24;;;;;;;;;;;20.10;99.90;;;;;;5137296;27;19950;-69
2022/07/25 02:59:50;;;;;;;;;;;20.10;99.90;;;;;;5137311;27;19930;-70
2022/07/25 03:02:17;;;;;;;;;;;20.10;99.90;;;;;;5137024;27;19931;-70
2022/07/25 03:04:42;;;;;;;;;;;20.00;99.90;;;;;;5118961;27;19928;-70
2022/07/25 03:07:08;;;;;;;;;;;20.00;99.90;;;;;;5136913;27;19930;-70
2022/07/25 03:09:33;;;;;;;;;;;20.10;99.90;;;;;;5101403;27;19931;-70
2022/07/25 03:11:59;;;;;;;;;;;20.10;99.90;;;;;;5137011;27;19978;-69
2022/07/25 03:14:24;;;;;;;;;;;20.00;99.90;;;;;;5137005;27;19933;-69
2022/07/25 03:16:50;;;;;;;;;;;20.00;99.90;;;;;;5118893;27;20067;-70
2022/07/25 03:19:16;;;;;;;;;;;20.00;99.90;;;;;;5136804;27;19930;-68
2022/07/25 03:21:41;;;;;;;;;;;20.00;99.90;;;;;;5136655;27;19930;-70
2022/07/25 03:24:07;;;;;;;;;;;20.00;99.90;;;;;;5136547;27;19958;-69
2022/07/25 03:26:32;;;;;;;;;;;20.00;99.90;;;;;;5136669;27;20400;-69
2022/07/25 03:28:58;;;;;;;;;;;19.90;99.90;;;;;;5136640;27;19969;-70
2022/07/25 03:31:23;;;;;;;;;;;19.90;99.90;;;;;;5118556;27;19930;-70
2022/07/25 03:33:49;;;;;;;;;;;19.90;99.90;;;;;;5136455;27;19923;-69
2022/07/25 03:36:14;;;;;;;;;;;19.90;99.90;;;;;;5136524;27;19980;-69
2022/07/25 03:38:40;;;;;;;;;;;19.90;99.90;;;;;;5136242;27;20049;-71
2022/07/25 03:41:05;;;;;;;;;;;19.90;99.90;;;;;;5136449;27;19991;-69
2022/07/25 03:43:31;;;;;;;;;;;19.90;99.90;;;;;;5136246;27;19924;-69
2022/07/25 03:45:56;;;;;;;;;;;19.90;99.90;;;;;;5136084;27;20216;-69
2022/07/25 03:48:22;;;;;;;;;;;19.70;99.90;;;;;;5136269;27;19927;-70
2022/07/25 03:50:48;;;;;;;;;;;19.90;99.90;;;;;;5152447;27;19988;-69
2022/07/25 03:53:13;;;;;;;;;;;19.90;99.90;;;;;;5136089;27;19930;-70
2022/07/25 03:55:39;;;;;;;;;;;19.90;99.90;;;;;;5135905;27;20014;-69
2022/07/25 03:58:05;;;;;;;;;;;19.90;99.90;;;;;;5118059;27;19923;-70
2022/07/25 04:00:31;;;;;;;;;;;19.80;99.90;;;;;;5136064;27;19927;-70
2022/07/25 04:02:56;;;;;;;;;;;19.90;99.90;;;;;;5135911;27;19923;-69
2022/07/25 04:05:22;;;;;;;;;;;19.90;99.90;;;;;;5117728;27;20038;-70
2022/07/25 04:07:47;;;;;;;;;;;19.90;99.90;;;;;;5135840;27;19924;-72
2022/07/25 04:10:13;;;;;;;;;;;19.80;99.90;;;;;;5135592;27;19924;-71
2022/07/25 04:12:39;;;;;;;;;;;19.80;99.90;;;;;;5135863;27;19923;-69
2022/07/25 04:15:05;;;;;;;;;;;19.80;99.90;;;;;;5117023;27;19930;-69
2022/07/25 04:17:30;;;;;;;;;;;19.90;99.90;;;;;;5135774;27;19924;-69
2022/07/25 04:19:56;;;;;;;;;;;19.80;99.90;;;;;;5135648;27;19924;-71
2022/07/25 04:22:21;;;;;;;;;;;19.80;99.90;;;;;;5134835;27;19923;-68
2022/07/25 04:24:47;;;;;;;;;;;19.80;99.90;;;;;;5135334;27;20006;-71
2022/07/25 04:27:13;;;;;;;;;;;19.90;99.90;;;;;;5135129;27;20426;-71
2022/07/25 04:29:38;;;;;;;;;;;19.80;99.90;;;;;;5117572;27;19931;-69
2022/07/25 04:32:04;;;;;;;;;;;19.80;99.90;;;;;;5151748;27;20300;-70
2022/07/25 04:34:30;;;;;;;;;;;19.90;99.90;;;;;;5135372;27;19974;-70
2022/07/25 04:36:55;;;;;;;;;;;19.90;99.90;;;;;;5117324;27;19928;-69
2022/07/25 04:39:21;;;;;;;;;;;19.90;99.90;;;;;;5135234;27;20010;-70
2022/07/25 04:41:47;;;;;;;;;;;19.90;99.90;;;;;;5117000;27;19923;-70
2022/07/25 04:44:12;;;;;;;;;;;19.90;99.90;;;;;;5135297;27;19930;-70
2022/07/25 04:46:39;;;;;;;;;;;19.90;99.90;;;;;;5151393;27;19930;-69
2022/07/25 04:49:04;;;;;;;;;;;19.90;99.90;;;;;;5151357;27;19972;-69
2022/07/25 04:51:33;;;;;;;;;;;19.90;99.90;;;;;;5116241;27;19927;-69
2022/07/25 04:53:58;;;;;;;;;;;19.90;99.90;;;;;;5135039;27;19967;-70
2022/07/25 04:56:24;;;;;;;;;;;19.90;99.90;;;;;;5116821;27;19930;-70
2022/07/25 04:58:49;;;;;;;;;;;19.90;99.90;;;;;;5135093;27;19976;-70
2022/07/25 05:01:15;;;;;;;;;;;19.90;99.90;;;;;;5099969;27;20491;-69
2022/07/25 05:03:41;;;;;;;;;;;19.90;99.90;;;;;;5134939;27;19923;-69
2022/07/25 05:06:06;;;;;;;;;;;19.90;99.90;;;;;;5134787;27;20018;-70
2022/07/25 05:08:32;;;;;;;;;;;20.00;99.90;;;;;;5116729;27;19924;-70
2022/07/25 05:10:57;;;;;;;;;;;20.10;99.90;;;;;;5116549;28;19976;-69
2022/07/25 05:13:23;;;;;;;;;;;20.10;99.90;;;;;;5134651;27;19936;-70
2022/07/25 05:15:49;;;;;;;;;;;20.10;99.90;;;;;;5134876;27;19930;-70
2022/07/25 05:18:14;;;;;;;;;;;20.20;99.90;;;;;;5134828;27;20385;-71
2022/07/25 05:20:40;;;;;;;;;;;20.20;99.90;;;;;;5116434;28;20290;-70
2022/07/25 05:23:05;;;;;;;;;;;20.30;99.90;;;;;;5134766;28;20382;-69
2022/07/25 05:25:31;;;;;;;;;;;20.40;99.90;;;;;;5134295;28;19924;-71
2022/07/25 05:27:57;;;;;;;;;;;20.40;99.90;;;;;;5150686;27;19923;-69
2022/07/25 05:30:23;;;;;;;;;;;20.40;99.90;;;;;;5134748;28;19931;-70
2022/07/25 05:32:48;;;;;;;;;;;20.50;99.90;;;;;;5134822;27;19923;-71
2022/07/25 05:35:14;;;;;;;;;;;20.50;99.90;;;;;;5138947;27;19924;-70
2022/07/25 05:37:40;;;;;;;;;;;20.50;99.90;;;;;;5138734;27;20374;-70
2022/07/25 05:40:06;;;;;;;;;;;20.60;99.90;;;;;;5138615;27;19934;-69
2022/07/25 05:42:32;;;;;;;;;;;20.60;99.90;;;;;;5138574;27;20009;-70
2022/07/25 05:44:58;;;;;;;;;;;20.70;99.90;;;;;;5120771;27;20373;-69
2022/07/25 05:47:24;;;;;;;;;;;20.70;99.90;;;;;;5120272;27;20294;-71
2022/07/25 05:49:49;;;;;;;;;;;20.80;99.90;;;;;;5120542;27;20363;-69
2022/07/25 05:52:15;;;;;;;;;;;20.80;99.90;;;;;;5120213;27;19999;-70
2022/07/25 05:54:41;;;;;;;;;;;20.90;99.90;;;;;;5120423;27;19924;-70
2022/07/25 05:57:07;;;;;;;;;;;20.90;99.90;;;;;;5138360;27;20337;-70
2022/07/25 05:59:32;;;;;;;;;;;21.00;99.90;;;;;;5138241;27;19968;-71
2022/07/25 06:01:59;;;;;;;;;;;21.00;99.90;;;;;;5138414;27;19923;-69
2022/07/25 06:04:25;;;;;;;;;;;21.00;99.90;;;;;;5138323;27;20424;-71
2022/07/25 06:06:51;;;;;;;;;;;21.10;99.90;;;;;;5138199;27;19923;-70
2022/07/25 06:09:20;;;;;;;;;;;21.20;99.90;;;;;;5138221;27;20015;-69
2022/07/25 06:11:46;;;;;;;;;;;21.20;99.90;;;;;;5138060;27;19934;-72
2022/07/25 06:14:12;;;;;;;;;;;21.30;99.90;;;;;;5138007;27;19927;-70
2022/07/25 06:16:37;;;;;;;;;;;21.30;99.90;;;;;;5138175;27;19923;-70
2022/07/25 06:19:03;;;;;;;;;;;21.40;99.90;;;;;;5154452;27;20278;-69
2022/07/25 06:21:29;;;;;;;;;;;21.50;99.90;;;;;;5137972;27;19924;-69
2022/07/25 06:23:54;;;;;;;;;;;21.50;99.90;;;;;;5119962;27;19924;-69
2022/07/25 06:26:20;;;;;;;;;;;21.50;99.90;;;;;;5137509;27;19923;-70
2022/07/25 06:28:46;;;;;;;;;;;21.60;99.90;;;;;;5119578;27;20437;-70
2022/07/25 06:31:11;;;;;;;;;;;21.60;99.90;;;;;;5137922;27;19928;-70
2022/07/25 06:33:37;;;;;;;;;;;21.70;99.90;;;;;;5137850;27;20057;-70
2022/07/25 06:36:03;;;;;;;;;;;21.70;99.90;;;;;;5137714;27;19967;-71
2022/07/25 06:38:29;;;;;;;;;;;21.70;99.90;;;;;;5137682;27;19971;-70
2022/07/25 06:40:54;;;;;;;;;;;21.80;99.90;;;;;;5137555;27;20339;-69
2022/07/25 06:43:20;;;;;;;;;;;21.70;99.90;;;;;;5119472;27;20009;-70
2022/07/25 06:45:46;;;;;;;;;;;21.80;99.90;;;;;;5136747;27;19924;-71
2022/07/25 06:48:15;;;;;;;;;;;21.80;99.90;;;;;;5137571;27;20010;-71
2022/07/25 06:50:40;;;;;;;;;;;21.80;99.90;;;;;;5137451;27;19966;-70
2022/07/25 06:53:06;;;;;;;;;;;21.80;99.90;;;;;;5137407;27;19935;-70
2022/07/25 06:55:32;;;;;;;;;;;21.80;99.90;;;;;;5137265;27;19929;-70
2022/07/25 06:57:57;;;;;;;;;;;21.90;99.90;;;;;;5137202;27;19924;-70
2022/07/25 07:00:23;;;;;;;;;;;21.90;99.90;;;;;;5137044;27;19986;-69
2022/07/25 07:02:52;;;;;;;;;;;21.90;99.90;;;;;;5137396;27;19923;-70
2022/07/25 07:05:18;;;;;;;;;;;21.90;99.90;;;;;;5136874;27;20303;-70
2022/07/25 07:07:43;;;;;;;;;;;22.00;99.90;;;;;;5137155;27;19923;-70
2022/07/25 07:10:09;;;;;;;;;;;22.00;99.90;;;;;;5136998;27;19927;-71
2022/07/25 07:12:35;;;;;;;;;;;22.10;99.90;;;;;;5136897;27;19927;-69
2022/07/25 07:15:00;;;;;;;;;;;22.10;99.90;;;;;;5136743;27;19923;-70
2022/07/25 07:17:26;;;;;;;;;;;22.20;99.90;;;;;;5136819;27;19923;-70
2022/07/25 07:19:51;;;;;;;;;;;22.30;99.90;;;;;;5136910;27;19923;-70
2022/07/25 07:22:17;;;;;;;;;;;22.30;99.90;;;;;;5136851;27;19976;-71
2022/07/25 07:24:43;;;;;;;;;;;22.40;99.90;;;;;;5118660;27;19931;-70
2022/07/25 07:27:08;;;;;;;;;;;22.50;99.90;;;;;;5136404;27;20033;-70
2022/07/25 07:29:34;;;;;;;;;;;22.60;99.90;;;;;;5136581;27;20006;-70
2022/07/25 07:32:00;;;;;;;;;;;22.70;99.90;;;;;;5136808;27;19930;-70
2022/07/25 07:34:25;;;;;;;;;;;22.70;99.90;;;;;;5118626;27;19927;-70
2022/07/25 07:36:51;;;;;;;;;;;22.80;99.90;;;;;;5136642;27;20287;-69
2022/07/25 07:39:16;;;;;;;;;;;22.90;99.90;;;;;;5136514;27;19946;-70
2022/07/25 07:41:42;;;;;;;;;;;22.90;99.90;;;;;;5136336;27;19930;-71
2022/07/25 07:44:08;;;;;;;;;;;23.10;99.90;;;;;;5101235;27;19924;-70
2022/07/25 07:46:33;;;;;;;;;;;23.20;99.90;;;;;;5136151;27;20349;-69
2022/07/25 07:48:59;;;;;;;;;;;23.30;99.90;;;;;;5136406;27;19933;-71
2022/07/25 07:51:24;;;;;;;;;;;23.40;99.90;;;;;;5136581;27;19928;-69
2022/07/25 07:56:34;;;;;;;;;;;23.50;99.90;;;;;;5135072;27;19931;-70
2022/07/25 07:58:59;;;;;;;;;;;23.60;99.90;;;;;;5117940;27;19923;-72
2022/07/25 08:01:25;;;;;;;;;;;23.70;99.90;;;;;;5135862;27;19935;-71
2022/07/25 08:03:51;;;;;;;;;;;23.70;99.90;;;;;;5136057;27;19930;-70
2022/07/25 08:06:17;;;;;;;;;;;23.80;99.90;;;;;;5135676;27;19946;-70
2022/07/25 08:08:43;;;;;;;;;;;23.90;99.90;;;;;;5152187;27;19924;-72
2022/07/25 08:11:08;;;;;;;;;;;23.90;99.90;;;;;;5135820;27;19975;-70
2022/07/25 08:13:35;;;;;;;;;;;24.00;99.90;;;;;;5135729;27;19927;-70
2022/07/25 08:16:02;;;;;;;;;;;24.00;99.90;;;;;;5116896;27;19986;-70
2022/07/25 08:18:34;;;;;;;;;;;24.00;99.90;;;;;;5135771;27;19967;-70
2022/07/25 08:21:04;;;;;;;;;;;24.10;99.90;;;;;;5135680;27;19923;-70
2022/07/25 08:23:33;;;;;;;;;;;24.10;99.90;;;;;;5135726;27;19930;-70
2022/07/25 08:25:59;;;;;;;;;;;24.10;99.90;;;;;;5135465;27;19923;-70
2022/07/25 08:28:25;;;;;;;;;;;24.10;99.90;;;;;;5135394;27;19924;-69
2022/07/25 08:30:51;;;;;;;;;;;24.10;99.90;;;;;;5135267;27;20279;-70
2022/07/25 08:33:17;;;;;;;;;;;24.10;99.90;;;;;;5135492;27;20377;-70
2022/07/25 08:35:46;;;;;;;;;;;24.20;99.90;;;;;;5135445;27;19975;-72
2022/07/25 08:38:12;;;;;;;;;;;24.20;99.90;;;;;;5135298;27;19955;-70
2022/07/25 08:40:37;;;;;;;;;;;24.30;99.90;;;;;;5117007;27;20330;-71
2022/07/25 08:43:03;;;;;;;;;;;24.40;99.90;;;;;;5135212;27;19968;-70
2022/07/25 08:45:29;;;;;;;;;;;24.50;99.90;;;;;;5134899;27;20004;-71
2022/07/25 08:47:55;;;;;;;;;;;24.50;99.90;;;;;;5135298;27;19923;-69
2022/07/25 08:50:22;;;;;;;;;;;24.60;99.90;;;;;;5135228;27;19976;-70
2022/07/25 08:52:48;;;;;;;;;;;24.60;99.90;;;;;;5135053;27;20063;-70
2022/07/25 08:55:22;;;;;;;;;;;24.50;99.90;;;;;;5135100;27;19930;-70
2022/07/25 08:57:51;;;;;;;;;;;24.50;99.90;;;;;;5134838;27;19930;-72
2022/07/25 09:00:18;;;;;;;;;;;24.50;99.90;;;;;;5116816;27;19945;-70
2022/07/25 09:02:49;;;;;;;;;;;24.50;99.90;;;;;;5134930;27;20402;-72
2022/07/25 09:05:15;;;;;;;;;;;24.50;99.90;;;;;;5134905;27;20382;-72
2022/07/25 09:07:41;;;;;;;;;;;24.50;99.90;;;;;;5134592;27;19923;-70
2022/07/25 09:10:26;;;;;;;;;;;24.30;99.90;;;;;;5134662;27;19927;-70
2022/07/25 09:12:58;;;;;;;;;;;24.40;99.90;;;;;;5116889;27;20392;-71
2022/07/25 09:15:24;;;;;;;;;;;24.40;99.90;;;;;;5134854;27;19924;-71
2022/07/25 09:17:51;;;;;;;;;;;24.50;99.90;;;;;;5134857;27;19923;-71
2022/07/25 09:20:16;;;;;;;;;;;24.30;99.90;;;;;;5134718;27;19931;-70
2022/07/25 09:22:45;;;;;;;;;;;24.30;99.90;;;;;;5134675;28;19923;-71
2022/07/25 09:25:24;;;;;;;;;;;24.30;99.90;;;;;;5116019;28;20010;-70
2022/07/25 09:27:50;;;;;;;;;;;24.30;99.90;;;;;;5134648;28;19924;-69
2022/07/25 09:30:16;;;;;;;;;;;24.30;99.90;;;;;;5134707;28;19923;-72
2022/07/25 09:32:42;;;;;;;;;;;24.30;99.90;;;;;;5134583;28;19923;-70
2022/07/25 09:35:07;;;;;;;;;;;24.20;99.90;;;;;;5134558;28;20397;-69
2022/07/25 09:37:33;;;;;;;;;;;24.20;99.90;;;;;;5134552;28;19930;-71
2022/07/25 09:39:59;;;;;;;;;;;24.20;99.90;;;;;;5134426;28;20342;-70
2022/07/25 09:42:26;;;;;;;;;;;24.10;99.90;;;;;;5134592;28;20397;-70
2022/07/25 09:44:58;;;;;;;;;;;24.10;99.90;;;;;;5134790;28;20370;-70
2022/07/25 09:47:24;;;;;;;;;;;24.00;99.90;;;;;;5134475;28;19923;-70
2022/07/25 09:49:51;;;;;;;;;;;24.00;99.90;;;;;;5134312;28;19923;-72
2022/07/25 09:52:16;;;;;;;;;;;24.00;99.90;;;;;;5134451;28;19924;-71
2022/07/25 09:54:42;;;;;;;;;;;23.90;99.90;;;;;;5116179;28;19930;-70
2022/07/25 09:57:07;;;;;;;;;;;24.00;99.90;;;;;;5134485;28;19973;-70
2022/07/25 09:59:34;;;;;;;;;;;23.90;99.90;;;;;;5134462;28;20339;-70
2022/07/25 10:02:10;;;;;;;;;;;23.90;99.90;;;;;;5134209;28;19924;-70
2022/07/25 10:04:47;;;;;;;;;;;23.90;99.90;;;;;;5134266;28;19927;-70
2022/07/25 10:07:14;;;;;;;;;;;23.90;99.90;;;;;;5115797;28;19927;-71
2022/07/25 10:09:40;;;;;;;;;;;23.90;99.90;;;;;;5134408;28;19923;-70
2022/07/25 10:12:07;;;;;;;;;;;23.90;99.90;;;;;;5134246;28;19931;-69
2022/07/25 10:14:34;;;;;;;;;;;23.90;99.90;;;;;;5134232;28;19930;-70
2022/07/25 10:17:02;;;;;;;;;;;23.90;99.90;;;;;;5134188;28;19924;-70
2022/07/25 10:19:38;;;;;;;;;;;23.90;99.90;;;;;;5117206;27;19930;-70
2022/07/25 10:22:04;;;;;;;;;;;23.90;99.90;;;;;;5154192;27;19932;-70
2022/07/25 10:24:33;;;;;;;;;;;23.90;99.90;;;;;;5137976;27;19931;-72
2022/07/25 10:27:06;;;;;;;;;;;23.90;99.90;;;;;;5137356;27;19923;-72
2022/07/25 10:29:35;;;;;;;;;;;24.00;99.90;;;;;;5137809;27;19923;-70
2022/07/25 10:32:06;;;;;;;;;;;24.00;99.90;;;;;;5137701;27;19931;-72
2022/07/25 10:34:33;;;;;;;;;;;24.00;99.90;;;;;;5137696;27;19923;-70
2022/07/25 10:37:08;;;;;;;;;;;23.90;99.90;;;;;;5137822;27;19923;-70
2022/07/25 10:39:37;;;;;;;;;;;23.90;99.90;;;;;;5154172;27;19923;-70
2022/07/25 10:42:04;;;;;;;;;;;23.90;99.90;;;;;;5137509;27;20010;-70
2022/07/25 10:44:42;;;;;;;;;;;23.90;99.90;;;;;;5137519;27;19923;-69
2022/07/25 10:47:10;;;;;;;;;;;23.90;99.90;;;;;;5153493;27;19924;-69
2022/07/25 10:49:37;;;;;;;;;;;23.90;99.90;;;;;;5137624;27;19946;-72
2022/07/25 10:52:03;;;;;;;;;;;23.90;99.90;;;;;;5137489;27;19924;-71
2022/07/25 10:54:33;;;;;;;;;;;23.80;99.90;;;;;;5153737;27;20393;-70
2022/07/25 10:56:59;;;;;;;;;;;23.80;99.90;;;;;;5137233;27;19988;-72
2022/07/25 10:59:26;;;;;;;;;;;23.80;99.90;;;;;;5153658;27;20004;-70
2022/07/25 11:01:52;;;;;;;;;;;23.90;99.90;;;;;;5119003;27;19953;-72
2022/07/25 11:04:17;;;;;;;;;;;23.90;99.90;;;;;;5137290;27;19923;-70
2022/07/25 11:06:43;;;;;;;;;;;24.10;99.90;;;;;;5137148;27;20292;-70
2022/07/25 11:09:19;;;;;;;;;;;24.10;99.90;;;;;;5137305;27;19928;-70
2022/07/25 11:11:47;;;;;;;;;;;24.10;99.90;;;;;;5136939;27;19946;-71
2022/07/25 11:14:16;;;;;;;;;;;24.10;99.90;;;;;;5136974;27;19968;-71
2022/07/25 11:16:43;;;;;;;;;;;24.10;99.90;;;;;;5136830;27;19923;-70
2022/07/25 11:19:19;;;;;;;;;;;24.10;99.90;;;;;;5136979;27;19923;-70
2022/07/25 11:21:46;;;;;;;;;;;24.00;99.90;;;;;;5136920;27;20015;-71
2022/07/25 11:24:11;;;;;;;;;;;24.10;99.90;;;;;;5136792;27;19923;-70
2022/07/25 11:26:44;;;;;;;;;;;24.00;99.90;;;;;;5118111;27;19924;-70
2022/07/25 11:29:16;;;;;;;;;;;23.90;99.90;;;;;;5118133;27;20007;-70
2022/07/25 11:31:42;;;;;;;;;;;23.90;99.90;;;;;;5136628;27;19927;-71
2022/07/25 11:34:08;;;;;;;;;;;23.90;99.90;;;;;;5136611;27;19929;-70
2022/07/25 11:36:34;;;;;;;;;;;23.90;99.90;;;;;;5136592;27;19930;-70
2022/07/25 11:39:00;;;;;;;;;;;23.80;99.90;;;;;;5136344;27;20445;-70
2022/07/25 11:41:28;;;;;;;;;;;23.70;99.90;;;;;;5136317;27;19977;-70
2022/07/25 11:43:54;;;;;;;;;;;23.70;99.90;;;;;;5136268;27;19924;-72
2022/07/25 11:46:19;;;;;;;;;;;23.70;99.90;;;;;;5136432;27;19930;-70
2022/07/25 11:48:46;;;;;;;;;;;23.70;99.90;;;;;;5118389;27;19980;-70
2022/07/25 11:51:12;;;;;;;;;;;23.70;99.90;;;;;;5136243;27;19993;-70
2022/07/25 11:53:38;;;;;;;;;;;23.60;99.90;;;;;;5136256;27;19923;-70
2022/07/25 11:56:17;;;;;;;;;;;23.60;99.90;;;;;;5136084;27;19968;-71
2022/07/25 11:58:48;;;;;;;;;;;23.50;99.90;;;;;;5136012;27;19923;-70
2022/07/25 12:01:14;;;;;;;;;;;23.40;99.90;;;;;;5136209;27;20019;-71
2022/07/25 12:03:40;;;;;;;;;;;23.40;99.90;;;;;;5117961;27;19971;-70
2022/07/25 12:06:06;;;;;;;;;;;23.40;99.90;;;;;;5135810;27;20301;-70
2022/07/25 12:08:35;;;;;;;;;;;23.40;99.90;;;;;;5135922;27;19924;-71
2022/07/25 12:11:01;;;;;;;;;;;23.00;99.90;;;;;;5100293;27;19972;-70
2022/07/25 12:13:27;;;;;;;;;;;23.40;99.90;;;;;;5135729;27;19954;-71
2022/07/25 12:15:55;;;;;;;;;;;23.40;99.90;;;;;;5135833;27;19969;-70
2022/07/25 12:18:20;;;;;;;;;;;23.40;99.90;;;;;;5135777;27;20014;-70
2022/07/25 12:20:46;;;;;;;;;;;23.30;99.90;;;;;;5117342;27;20006;-70
2022/07/25 12:23:12;;;;;;;;;;;23.30;99.90;;;;;;5117500;27;19998;-71
2022/07/25 12:25:39;;;;;;;;;;;23.30;99.90;;;;;;5135528;27;19923;-70
2022/07/25 12:28:07;;;;;;;;;;;23.20;99.90;;;;;;5116519;27;20214;-69
2022/07/25 12:30:33;;;;;;;;;;;23.20;99.90;;;;;;5135559;27;19968;-71
2022/07/25 12:32:58;;;;;;;;;;;23.10;99.90;;;;;;5117303;27;20332;-70
2022/07/25 12:35:24;;;;;;;;;;;23.10;99.90;;;;;;5135412;27;19923;-72
2022/07/25 12:37:50;;;;;;;;;;;23.10;99.90;;;;;;5135315;27;20400;-70
2022/07/25 12:40:16;;;;;;;;;;;23.30;99.90;;;;;;5135216;27;20278;-70
2022/07/25 12:42:42;;;;;;;;;;;23.40;99.90;;;;;;5134690;27;19931;-71
2022/07/25 12:45:08;;;;;;;;;;;23.40;99.90;;;;;;5135322;27;19923;-71
2022/07/25 12:47:34;;;;;;;;;;;23.40;99.90;;;;;;5135215;27;19965;-70
2022/07/25 12:50:00;;;;;;;;;;;23.40;99.90;;;;;;5135210;27;19927;-70
2022/07/25 12:52:26;;;;;;;;;;;23.30;99.90;;;;;;5151194;27;20321;-70
2022/07/25 12:54:51;;;;;;;;;;;23.30;99.90;;;;;;5133387;27;19931;-71
2022/07/25 12:57:17;;;;;;;;;;;23.30;99.90;;;;;;5134838;27;19927;-70
2022/07/25 12:59:42;;;;;;;;;;;23.30;99.90;;;;;;5135113;27;19927;-70
2022/07/25 13:02:08;;;;;;;;;;;23.30;99.90;;;;;;5135098;27;20385;-70
2022/07/25 13:04:34;;;;;;;;;;;23.20;99.90;;;;;;5134966;27;19923;-71
2022/07/25 13:07:00;;;;;;;;;;;23.10;99.90;;;;;;5134764;27;19930;-71
2022/07/25 13:09:25;;;;;;;;;;;23.10;99.90;;;;;;5134975;27;19923;-72
2022/07/25 13:11:51;;;;;;;;;;;23.00;99.90;;;;;;5134641;27;20365;-69
2022/07/25 13:14:17;;;;;;;;;;;22.90;99.90;;;;;;5134661;27;20351;-70
2022/07/25 13:16:42;;;;;;;;;;;22.90;99.90;;;;;;5134918;27;19930;-70
2022/07/25 13:19:08;;;;;;;;;;;22.80;99.90;;;;;;5134776;27;19923;-69
2022/07/25 13:21:34;;;;;;;;;;;22.80;99.90;;;;;;5134821;27;19928;-72
2022/07/25 13:23:59;;;;;;;;;;;22.90;99.90;;;;;;5134725;28;19923;-69
2022/07/25 13:26:25;;;;;;;;;;;22.90;99.90;;;;;;5115983;28;19971;-70
2022/07/25 13:28:50;;;;;;;;;;;22.90;99.90;;;;;;5134492;28;19924;-71
2022/07/25 13:31:17;;;;;;;;;;;22.90;99.90;;;;;;5134723;28;19967;-70
2022/07/25 13:33:43;;;;;;;;;;;22.90;99.90;;;;;;5134895;28;19924;-70
2022/07/25 13:36:08;;;;;;;;;;;22.80;99.90;;;;;;5134657;28;19931;-71
2022/07/25 13:38:34;;;;;;;;;;;22.80;99.90;;;;;;5116546;28;19928;-72
2022/07/25 13:41:01;;;;;;;;;;;22.80;99.90;;;;;;5116440;28;19949;-72
2022/07/25 13:43:27;;;;;;;;;;;22.80;99.90;;;;;;5115732;28;20339;-69
2022/07/25 13:45:52;;;;;;;;;;;22.80;99.90;;;;;;5134418;28;19928;-70
2022/07/25 13:48:18;;;;;;;;;;;22.90;99.90;;;;;;5134596;28;19975;-72
2022/07/25 13:50:43;;;;;;;;;;;22.60;99.90;;;;;;5134758;28;19966;-70
2022/07/25 13:53:09;;;;;;;;;;;23.00;99.90;;;;;;5134516;27;19930;-71
2022/07/25 13:55:34;;;;;;;;;;;23.10;99.90;;;;;;5137486;27;19923;-71
2022/07/25 13:58:00;;;;;;;;;;;23.20;99.90;;;;;;5138509;27;20395;-69
2022/07/25 14:00:26;;;;;;;;;;;23.30;99.90;;;;;;5138295;27;19931;-70
2022/07/25 14:02:51;;;;;;;;;;;23.40;99.90;;;;;;5138536;27;20006;-71
2022/07/25 14:05:17;;;;;;;;;;;23.40;99.90;;;;;;5154467;27;19930;-70
2022/07/25 14:07:42;;;;;;;;;;;23.30;99.90;;;;;;5138282;27;19923;-70
2022/07/25 14:10:08;;;;;;;;;;;23.20;99.90;;;;;;5120043;27;19923;-71
2022/07/25 14:12:34;;;;;;;;;;;23.20;99.90;;;;;;5138140;27;19964;-70
2022/07/25 14:15:00;;;;;;;;;;;23.10;99.90;;;;;;5138083;27;19966;-69